Terminal Aerodrome Forecast
Issued by NWS

Home | Current Version | Previous Version | Text Only | Print | Product List | Glossary On
Versions: 1 2 3 4 5 6 7 8 9 10 11 12 13 14 15 16 17 18 19 20 21
000
FTUS41 KBGM 310800 AAA
TAFELM
TAF AMD
KELM 310839Z 3109/0106 19006KT P6SM OVC020
     FM311100 18002KT 5SM -SHRA SCT009 OVC013
     FM311300 22005KT 5SM -SHRA OVC035
      TEMPO 3113/3117 3SM -TSRA OVC025CB=

USA.gov is the U.S. government's official web portal to all federal, state and local government web resources and services.